sensor_id;sensor_type;location;lat;lon;timestamp;temperature;humidity
47336;DHT22;33068;51.990;5.926;2023-02-26T00:00:58;0.40;99.90
47336;DHT22;33068;51.990;5.926;2023-02-26T00:03:25;0.40;99.90
47336;DHT22;33068;51.990;5.926;2023-02-26T00:05:52;0.30;99.90
47336;DHT22;33068;51.990;5.926;2023-02-26T00:08:19;0.40;99.90
47336;DHT22;33068;51.990;5.926;2023-02-26T00:10:46;0.40;99.90
47336;DHT22;33068;51.990;5.926;2023-02-26T00:13:14;0.40;99.90
47336;DHT22;33068;51.990;5.926;2023-02-26T00:15:43;0.40;99.90
47336;DHT22;33068;51.990;5.926;2023-02-26T00:18:13;0.30;99.90
47336;DHT22;33068;51.990;5.926;2023-02-26T00:20:42;0.40;99.90
47336;DHT22;33068;51.990;5.926;2023-02-26T00:23:11;0.30;99.90
47336;DHT22;33068;51.990;5.926;2023-02-26T00:25:40;0.40;99.90
47336;DHT22;33068;51.990;5.926;2023-02-26T00:28:08;0.30;99.90
47336;DHT22;33068;51.990;5.926;2023-02-26T00:30:36;0.30;99.90
47336;DHT22;33068;51.990;5.926;2023-02-26T00:33:05;0.30;99.90
47336;DHT22;33068;51.990;5.926;2023-02-26T00:35:34;0.30;99.90
47336;DHT22;33068;51.990;5.926;2023-02-26T00:38:02;0.30;99.90
47336;DHT22;33068;51.990;5.926;2023-02-26T00:40:35;0.20;99.90
47336;DHT22;33068;51.990;5.926;2023-02-26T00:43:04;0.30;99.90
47336;DHT22;33068;51.990;5.926;2023-02-26T00:45:33;0.20;99.90
47336;DHT22;33068;51.990;5.926;2023-02-26T00:48:20;0.20;99.90
47336;DHT22;33068;51.990;5.926;2023-02-26T00:50:55;0.20;99.90
47336;DHT22;33068;51.990;5.926;2023-02-26T00:53:28;0.30;99.90
47336;DHT22;33068;51.990;5.926;2023-02-26T00:55:57;0.10;99.90
47336;DHT22;33068;51.990;5.926;2023-02-26T00:58:25;0.10;99.90
47336;DHT22;33068;51.990;5.926;2023-02-26T01:00:52;0.10;99.90
47336;DHT22;33068;51.990;5.926;2023-02-26T01:03:21;0.10;99.90
47336;DHT22;33068;51.990;5.926;2023-02-26T01:05:48;0.10;99.90
47336;DHT22;33068;51.990;5.926;2023-02-26T01:08:20;0.20;99.90
47336;DHT22;33068;51.990;5.926;2023-02-26T01:10:49;0.20;99.90
47336;DHT22;33068;51.990;5.926;2023-02-26T01:13:16;0.10;99.90
47336;DHT22;33068;51.990;5.926;2023-02-26T01:15:47;0.20;99.90
47336;DHT22;33068;51.990;5.926;2023-02-26T01:18:18;0.10;99.90
47336;DHT22;33068;51.990;5.926;2023-02-26T01:20:52;0.10;99.90
47336;DHT22;33068;51.990;5.926;2023-02-26T01:23:23;0.10;99.90
47336;DHT22;33068;51.990;5.926;2023-02-26T01:25:54;0.10;99.90
47336;DHT22;33068;51.990;5.926;2023-02-26T01:28:24;0.10;99.90
47336;DHT22;33068;51.990;5.926;2023-02-26T01:30:55;0.10;99.90
47336;DHT22;33068;51.990;5.926;2023-02-26T01:33:28;0.10;99.90
47336;DHT22;33068;51.990;5.926;2023-02-26T01:36:02;0.10;99.90
47336;DHT22;33068;51.990;5.926;2023-02-26T01:38:39;0.00;99.90
47336;DHT22;33068;51.990;5.926;2023-02-26T01:41:26;0.30;99.90
47336;DHT22;33068;51.990;5.926;2023-02-26T01:44:14;0.00;99.90
47336;DHT22;33068;51.990;5.926;2023-02-26T01:46:56;0.00;99.90
47336;DHT22;33068;51.990;5.926;2023-02-26T01:49:27;0.00;99.90
47336;DHT22;33068;51.990;5.926;2023-02-26T01:51:57;0.00;99.90
47336;DHT22;33068;51.990;5.926;2023-02-26T01:54:29;0.20;99.90
47336;DHT22;33068;51.990;5.926;2023-02-26T01:57:00;-0.10;99.90
47336;DHT22;33068;51.990;5.926;2023-02-26T01:59:30;-0.10;99.90
47336;DHT22;33068;51.990;5.926;2023-02-26T02:01:59;-0.20;99.90
47336;DHT22;33068;51.990;5.926;2023-02-26T02:04:31;-0.20;99.90
47336;DHT22;33068;51.990;5.926;2023-02-26T02:07:02;-0.20;99.90
47336;DHT22;33068;51.990;5.926;2023-02-26T02:09:30;-0.30;99.90
47336;DHT22;33068;51.990;5.926;2023-02-26T02:12:06;-0.30;99.90
47336;DHT22;33068;51.990;5.926;2023-02-26T02:14:42;-0.30;99.90
47336;DHT22;33068;51.990;5.926;2023-02-26T02:17:11;-0.40;99.90
47336;DHT22;33068;51.990;5.926;2023-02-26T02:19:58;-0.30;99.90
47336;DHT22;33068;51.990;5.926;2023-02-26T02:22:50;-0.30;99.90
47336;DHT22;33068;51.990;5.926;2023-02-26T02:25:32;-0.30;99.90
47336;DHT22;33068;51.990;5.926;2023-02-26T02:28:07;-0.30;99.90
47336;DHT22;33068;51.990;5.926;2023-02-26T02:30:55;-0.30;99.90
47336;DHT22;33068;51.990;5.926;2023-02-26T02:33:25;-0.30;99.90
47336;DHT22;33068;51.990;5.926;2023-02-26T02:35:58;-0.30;99.90
47336;DHT22;33068;51.990;5.926;2023-02-26T02:38:33;-0.20;99.90
47336;DHT22;33068;51.990;5.926;2023-02-26T02:41:06;-0.40;99.90
47336;DHT22;33068;51.990;5.926;2023-02-26T02:43:36;-0.40;99.90
47336;DHT22;33068;51.990;5.926;2023-02-26T02:46:07;-0.50;99.90
47336;DHT22;33068;51.990;5.926;2023-02-26T02:48:38;-0.40;99.90
47336;DHT22;33068;51.990;5.926;2023-02-26T02:51:11;-0.20;99.90
47336;DHT22;33068;51.990;5.926;2023-02-26T02:53:45;-0.20;99.90
47336;DHT22;33068;51.990;5.926;2023-02-26T02:56:15;-0.50;99.90
47336;DHT22;33068;51.990;5.926;2023-02-26T02:58:46;-0.50;99.90
47336;DHT22;33068;51.990;5.926;2023-02-26T03:01:18;-0.60;99.90
47336;DHT22;33068;51.990;5.926;2023-02-26T03:03:51;-0.60;99.90
47336;DHT22;33068;51.990;5.926;2023-02-26T03:06:22;-0.60;99.90
47336;DHT22;33068;51.990;5.926;2023-02-26T03:08:50;-0.70;99.90
47336;DHT22;33068;51.990;5.926;2023-02-26T03:11:18;-0.70;99.90
47336;DHT22;33068;51.990;5.926;2023-02-26T03:13:47;-0.70;99.90
47336;DHT22;33068;51.990;5.926;2023-02-26T03:16:42;-0.70;99.90
47336;DHT22;33068;51.990;5.926;2023-02-26T03:19:19;-0.70;99.90
47336;DHT22;33068;51.990;5.926;2023-02-26T03:21:51;-0.70;99.90
47336;DHT22;33068;51.990;5.926;2023-02-26T03:24:46;-0.60;99.90
47336;DHT22;33068;51.990;5.926;2023-02-26T03:27:15;-0.70;99.90
47336;DHT22;33068;51.990;5.926;2023-02-26T03:29:50;-0.80;99.90
47336;DHT22;33068;51.990;5.926;2023-02-26T03:32:23;-0.80;99.90
47336;DHT22;33068;51.990;5.926;2023-02-26T03:34:57;-0.90;99.90
47336;DHT22;33068;51.990;5.926;2023-02-26T03:37:28;-0.90;99.90
47336;DHT22;33068;51.990;5.926;2023-02-26T03:39:59;-0.90;99.90
47336;DHT22;33068;51.990;5.926;2023-02-26T03:42:35;-0.90;99.90
47336;DHT22;33068;51.990;5.926;2023-02-26T03:45:08;-0.80;99.90
47336;DHT22;33068;51.990;5.926;2023-02-26T03:47:40;-1.00;99.90
47336;DHT22;33068;51.990;5.926;2023-02-26T03:50:12;-1.00;99.90
47336;DHT22;33068;51.990;5.926;2023-02-26T03:52:50;-0.90;99.90
47336;DHT22;33068;51.990;5.926;2023-02-26T03:55:30;-0.90;99.90
47336;DHT22;33068;51.990;5.926;2023-02-26T03:58:13;-0.90;99.90
47336;DHT22;33068;51.990;5.926;2023-02-26T04:01:14;-1.00;99.90
47336;DHT22;33068;51.990;5.926;2023-02-26T04:03:49;-1.00;99.90
47336;DHT22;33068;51.990;5.926;2023-02-26T04:06:18;-0.90;99.90
47336;DHT22;33068;51.990;5.926;2023-02-26T04:08:46;-1.00;99.90
47336;DHT22;33068;51.990;5.926;2023-02-26T04:11:15;-0.80;99.90
47336;DHT22;33068;51.990;5.926;2023-02-26T04:13:43;-1.10;99.90
47336;DHT22;33068;51.990;5.926;2023-02-26T04:16:11;-1.10;99.90
47336;DHT22;33068;51.990;5.926;2023-02-26T04:18:38;-1.10;99.90
47336;DHT22;33068;51.990;5.926;2023-02-26T04:21:11;-1.00;99.90
47336;DHT22;33068;51.990;5.926;2023-02-26T04:23:39;-1.20;99.90
47336;DHT22;33068;51.990;5.926;2023-02-26T04:26:06;-1.20;99.90
47336;DHT22;33068;51.990;5.926;2023-02-26T04:28:36;-1.00;99.90
47336;DHT22;33068;51.990;5.926;2023-02-26T04:31:03;-1.00;99.90
47336;DHT22;33068;51.990;5.926;2023-02-26T04:33:30;-1.10;99.90
47336;DHT22;33068;51.990;5.926;2023-02-26T04:35:58;-1.10;99.90
47336;DHT22;33068;51.990;5.926;2023-02-26T04:38:27;-1.10;99.90
47336;DHT22;33068;51.990;5.926;2023-02-26T04:40:54;-1.00;99.90
47336;DHT22;33068;51.990;5.926;2023-02-26T04:43:22;-1.10;99.90
47336;DHT22;33068;51.990;5.926;2023-02-26T04:46:02;-1.00;99.90
47336;DHT22;33068;51.990;5.926;2023-02-26T04:48:30;-0.70;99.90
47336;DHT22;33068;51.990;5.926;2023-02-26T04:50:57;-1.10;99.90
47336;DHT22;33068;51.990;5.926;2023-02-26T04:53:25;-1.10;99.90
47336;DHT22;33068;51.990;5.926;2023-02-26T04:55:54;-1.00;99.90
47336;DHT22;33068;51.990;5.926;2023-02-26T04:58:21;-1.00;99.90
47336;DHT22;33068;51.990;5.926;2023-02-26T05:00:49;-1.10;99.90
47336;DHT22;33068;51.990;5.926;2023-02-26T05:03:17;-1.10;99.90
47336;DHT22;33068;51.990;5.926;2023-02-26T05:05:44;-1.00;99.90
47336;DHT22;33068;51.990;5.926;2023-02-26T05:08:11;-1.10;99.90
47336;DHT22;33068;51.990;5.926;2023-02-26T05:10:40;-1.00;99.90
47336;DHT22;33068;51.990;5.926;2023-02-26T05:13:07;-1.00;99.90
47336;DHT22;33068;51.990;5.926;2023-02-26T05:15:34;-1.00;99.90
47336;DHT22;33068;51.990;5.926;2023-02-26T05:18:01;-1.10;99.90
47336;DHT22;33068;51.990;5.926;2023-02-26T05:20:28;-1.10;99.90
47336;DHT22;33068;51.990;5.926;2023-02-26T05:22:56;-1.10;99.90
47336;DHT22;33068;51.990;5.926;2023-02-26T05:25:23;-1.00;99.90
47336;DHT22;33068;51.990;5.926;2023-02-26T05:27:52;-0.90;99.90
47336;DHT22;33068;51.990;5.926;2023-02-26T05:30:22;-1.10;99.90
47336;DHT22;33068;51.990;5.926;2023-02-26T05:32:49;-1.20;99.90
47336;DHT22;33068;51.990;5.926;2023-02-26T05:35:16;-1.20;99.90
47336;DHT22;33068;51.990;5.926;2023-02-26T05:37:44;-1.20;99.90
47336;DHT22;33068;51.990;5.926;2023-02-26T05:40:11;-1.20;99.90
47336;DHT22;33068;51.990;5.926;2023-02-26T05:42:39;-1.10;99.90
47336;DHT22;33068;51.990;5.926;2023-02-26T05:45:08;-1.10;99.90
47336;DHT22;33068;51.990;5.926;2023-02-26T05:47:36;-1.10;99.90
47336;DHT22;33068;51.990;5.926;2023-02-26T05:50:04;-1.10;99.90
47336;DHT22;33068;51.990;5.926;2023-02-26T05:52:31;-1.20;99.90
47336;DHT22;33068;51.990;5.926;2023-02-26T05:54:58;-1.20;99.90
47336;DHT22;33068;51.990;5.926;2023-02-26T05:57:25;-1.20;99.90
47336;DHT22;33068;51.990;5.926;2023-02-26T05:59:52;-0.90;99.90
47336;DHT22;33068;51.990;5.926;2023-02-26T06:02:21;-1.00;99.90
47336;DHT22;33068;51.990;5.926;2023-02-26T06:04:48;-1.10;99.90
47336;DHT22;33068;51.990;5.926;2023-02-26T06:07:15;-1.20;99.90
47336;DHT22;33068;51.990;5.926;2023-02-26T06:09:42;-1.10;99.90
47336;DHT22;33068;51.990;5.926;2023-02-26T06:12:10;-1.20;99.90
47336;DHT22;33068;51.990;5.926;2023-02-26T06:14:37;-1.20;99.90
47336;DHT22;33068;51.990;5.926;2023-02-26T06:17:04;-1.30;99.90
47336;DHT22;33068;51.990;5.926;2023-02-26T06:19:33;-1.40;99.90
47336;DHT22;33068;51.990;5.926;2023-02-26T06:22:00;-1.20;99.90
47336;DHT22;33068;51.990;5.926;2023-02-26T06:24:27;-1.30;99.90
47336;DHT22;33068;51.990;5.926;2023-02-26T06:26:54;-1.30;99.90
47336;DHT22;33068;51.990;5.926;2023-02-26T06:29:21;-0.90;99.90
47336;DHT22;33068;51.990;5.926;2023-02-26T06:31:48;-1.30;99.90
47336;DHT22;33068;51.990;5.926;2023-02-26T06:34:16;-1.30;99.90
47336;DHT22;33068;51.990;5.926;2023-02-26T06:36:44;-1.30;99.90
47336;DHT22;33068;51.990;5.926;2023-02-26T06:39:11;-1.30;99.90
47336;DHT22;33068;51.990;5.926;2023-02-26T06:41:38;-1.30;99.90
47336;DHT22;33068;51.990;5.926;2023-02-26T06:44:06;-1.20;99.90
47336;DHT22;33068;51.990;5.926;2023-02-26T06:46:33;-1.20;99.90
47336;DHT22;33068;51.990;5.926;2023-02-26T06:49:00;-1.10;99.90
47336;DHT22;33068;51.990;5.926;2023-02-26T06:51:27;-1.00;99.90
47336;DHT22;33068;51.990;5.926;2023-02-26T06:53:56;-1.00;99.90
47336;DHT22;33068;51.990;5.926;2023-02-26T06:56:24;-1.00;99.90
47336;DHT22;33068;51.990;5.926;2023-02-26T06:58:51;-1.00;99.90
47336;DHT22;33068;51.990;5.926;2023-02-26T07:01:18;-1.00;99.90
47336;DHT22;33068;51.990;5.926;2023-02-26T07:03:45;-0.90;99.90
47336;DHT22;33068;51.990;5.926;2023-02-26T07:06:12;-0.90;99.90
47336;DHT22;33068;51.990;5.926;2023-02-26T07:08:40;-0.90;99.90
47336;DHT22;33068;51.990;5.926;2023-02-26T07:11:08;-0.80;99.90
47336;DHT22;33068;51.990;5.926;2023-02-26T07:13:35;-0.50;99.90
47336;DHT22;33068;51.990;5.926;2023-02-26T07:16:03;-0.80;99.90
47336;DHT22;33068;51.990;5.926;2023-02-26T07:18:32;-0.70;99.90
47336;DHT22;33068;51.990;5.926;2023-02-26T07:20:59;-0.70;99.90
47336;DHT22;33068;51.990;5.926;2023-02-26T07:23:27;-0.40;99.90
47336;DHT22;33068;51.990;5.926;2023-02-26T07:25:54;-0.60;99.90
47336;DHT22;33068;51.990;5.926;2023-02-26T07:28:23;-0.60;99.90
47336;DHT22;33068;51.990;5.926;2023-02-26T07:30:53;-0.60;99.90
47336;DHT22;33068;51.990;5.926;2023-02-26T07:33:20;-0.60;99.90
47336;DHT22;33068;51.990;5.926;2023-02-26T07:35:47;-0.20;99.90
47336;DHT22;33068;51.990;5.926;2023-02-26T07:38:14;-0.60;99.90
47336;DHT22;33068;51.990;5.926;2023-02-26T07:40:41;-0.50;99.90
47336;DHT22;33068;51.990;5.926;2023-02-26T07:43:09;-0.50;99.90
47336;DHT22;33068;51.990;5.926;2023-02-26T07:45:37;-0.20;99.90
47336;DHT22;33068;51.990;5.926;2023-02-26T07:48:04;-0.50;99.90
47336;DHT22;33068;51.990;5.926;2023-02-26T07:50:31;-0.40;99.90
47336;DHT22;33068;51.990;5.926;2023-02-26T07:52:58;-0.40;99.90
47336;DHT22;33068;51.990;5.926;2023-02-26T07:55:26;-0.30;99.90
47336;DHT22;33068;51.990;5.926;2023-02-26T07:57:53;-0.20;99.90
47336;DHT22;33068;51.990;5.926;2023-02-26T08:00:20;-0.20;99.90
47336;DHT22;33068;51.990;5.926;2023-02-26T08:02:49;-0.30;99.90
47336;DHT22;33068;51.990;5.926;2023-02-26T08:05:16;-0.30;99.90
47336;DHT22;33068;51.990;5.926;2023-02-26T08:07:44;-0.30;99.90
47336;DHT22;33068;51.990;5.926;2023-02-26T08:10:11;-0.10;99.90
47336;DHT22;33068;51.990;5.926;2023-02-26T08:12:38;-0.10;99.90
47336;DHT22;33068;51.990;5.926;2023-02-26T08:15:06;0.00;99.90
47336;DHT22;33068;51.990;5.926;2023-02-26T08:17:33;0.00;99.90
47336;DHT22;33068;51.990;5.926;2023-02-26T08:20:03;0.00;99.90
47336;DHT22;33068;51.990;5.926;2023-02-26T08:22:30;0.10;99.90
47336;DHT22;33068;51.990;5.926;2023-02-26T08:24:58;0.10;99.90
47336;DHT22;33068;51.990;5.926;2023-02-26T08:27:25;0.10;99.90
47336;DHT22;33068;51.990;5.926;2023-02-26T08:29:53;0.60;99.90
47336;DHT22;33068;51.990;5.926;2023-02-26T08:32:20;0.30;99.90
47336;DHT22;33068;51.990;5.926;2023-02-26T08:34:48;0.40;99.90
47336;DHT22;33068;51.990;5.926;2023-02-26T08:37:16;0.60;99.90
47336;DHT22;33068;51.990;5.926;2023-02-26T08:39:46;0.60;99.90
47336;DHT22;33068;51.990;5.926;2023-02-26T08:42:13;0.70;99.90
47336;DHT22;33068;51.990;5.926;2023-02-26T08:44:41;0.70;99.90
47336;DHT22;33068;51.990;5.926;2023-02-26T08:47:09;0.70;99.90
47336;DHT22;33068;51.990;5.926;2023-02-26T08:49:36;0.70;99.90
47336;DHT22;33068;51.990;5.926;2023-02-26T08:52:03;0.80;99.90
47336;DHT22;33068;51.990;5.926;2023-02-26T08:54:33;0.90;99.90
47336;DHT22;33068;51.990;5.926;2023-02-26T08:57:02;1.00;99.90
47336;DHT22;33068;51.990;5.926;2023-02-26T08:59:29;1.00;99.90
47336;DHT22;33068;51.990;5.926;2023-02-26T09:01:56;1.00;99.90
47336;DHT22;33068;51.990;5.926;2023-02-26T09:04:23;1.00;99.90
47336;DHT22;33068;51.990;5.926;2023-02-26T09:06:51;1.00;99.90
47336;DHT22;33068;51.990;5.926;2023-02-26T09:09:18;1.10;99.90
47336;DHT22;33068;51.990;5.926;2023-02-26T09:11:47;1.20;99.90
47336;DHT22;33068;51.990;5.926;2023-02-26T09:14:14;1.20;99.90
47336;DHT22;33068;51.990;5.926;2023-02-26T09:16:41;1.30;99.90
47336;DHT22;33068;51.990;5.926;2023-02-26T09:19:08;1.30;99.90
47336;DHT22;33068;51.990;5.926;2023-02-26T09:21:36;1.40;99.90
47336;DHT22;33068;51.990;5.926;2023-02-26T09:24:03;1.40;99.90
47336;DHT22;33068;51.990;5.926;2023-02-26T09:26:30;1.50;99.90
47336;DHT22;33068;51.990;5.926;2023-02-26T09:28:59;1.60;99.90
47336;DHT22;33068;51.990;5.926;2023-02-26T09:31:26;1.70;99.90
47336;DHT22;33068;51.990;5.926;2023-02-26T09:33:53;1.90;99.90
47336;DHT22;33068;51.990;5.926;2023-02-26T09:36:20;1.90;99.90
47336;DHT22;33068;51.990;5.926;2023-02-26T09:38:48;2.00;99.90
47336;DHT22;33068;51.990;5.926;2023-02-26T09:41:18;2.00;99.90
47336;DHT22;33068;51.990;5.926;2023-02-26T09:44:12;2.00;99.90
47336;DHT22;33068;51.990;5.926;2023-02-26T09:46:47;2.10;99.90
47336;DHT22;33068;51.990;5.926;2023-02-26T09:49:22;2.20;99.90
47336;DHT22;33068;51.990;5.926;2023-02-26T09:52:01;2.30;99.90
47336;DHT22;33068;51.990;5.926;2023-02-26T09:54:33;2.60;99.90
47336;DHT22;33068;51.990;5.926;2023-02-26T09:57:04;2.90;99.90
47336;DHT22;33068;51.990;5.926;2023-02-26T09:59:33;3.10;99.90
47336;DHT22;33068;51.990;5.926;2023-02-26T10:02:04;3.30;99.90
47336;DHT22;33068;51.990;5.926;2023-02-26T10:04:48;3.50;99.90
47336;DHT22;33068;51.990;5.926;2023-02-26T10:07:22;3.70;99.90
47336;DHT22;33068;51.990;5.926;2023-02-26T10:10:03;4.00;99.90
47336;DHT22;33068;51.990;5.926;2023-02-26T10:12:34;4.10;98.20
47336;DHT22;33068;51.990;5.926;2023-02-26T10:15:08;3.80;98.10
47336;DHT22;33068;51.990;5.926;2023-02-26T10:17:44;3.90;98.60
47336;DHT22;33068;51.990;5.926;2023-02-26T10:20:17;3.90;98.20
47336;DHT22;33068;51.990;5.926;2023-02-26T10:22:54;4.00;97.30
47336;DHT22;33068;51.990;5.926;2023-02-26T10:25:25;4.20;96.80
47336;DHT22;33068;51.990;5.926;2023-02-26T10:27:59;4.20;96.70
47336;DHT22;33068;51.990;5.926;2023-02-26T10:30:35;4.40;96.60
47336;DHT22;33068;51.990;5.926;2023-02-26T10:33:09;4.20;96.80
47336;DHT22;33068;51.990;5.926;2023-02-26T10:35:43;4.20;96.50
47336;DHT22;33068;51.990;5.926;2023-02-26T10:38:14;4.70;96.30
47336;DHT22;33068;51.990;5.926;2023-02-26T10:40:46;4.50;96.30
47336;DHT22;33068;51.990;5.926;2023-02-26T10:43:20;4.70;96.10
47336;DHT22;33068;51.990;5.926;2023-02-26T10:46:00;4.70;95.90
47336;DHT22;33068;51.990;5.926;2023-02-26T10:48:51;4.70;96.70
47336;DHT22;33068;51.990;5.926;2023-02-26T10:51:23;4.80;96.70
47336;DHT22;33068;51.990;5.926;2023-02-26T10:53:54;4.90;96.10
47336;DHT22;33068;51.990;5.926;2023-02-26T10:56:25;5.20;96.20
47336;DHT22;33068;51.990;5.926;2023-02-26T10:58:53;5.20;96.00
47336;DHT22;33068;51.990;5.926;2023-02-26T11:01:23;5.20;96.10
47336;DHT22;33068;51.990;5.926;2023-02-26T11:03:55;5.40;95.50
47336;DHT22;33068;51.990;5.926;2023-02-26T11:06:28;5.50;95.50
47336;DHT22;33068;51.990;5.926;2023-02-26T11:08:58;5.70;95.30
47336;DHT22;33068;51.990;5.926;2023-02-26T11:11:41;5.60;94.90
47336;DHT22;33068;51.990;5.926;2023-02-26T11:14:09;5.70;94.60
47336;DHT22;33068;51.990;5.926;2023-02-26T11:16:46;5.50;94.10
47336;DHT22;33068;51.990;5.926;2023-02-26T11:19:14;5.80;93.80
47336;DHT22;33068;51.990;5.926;2023-02-26T11:21:44;5.80;93.60
47336;DHT22;33068;51.990;5.926;2023-02-26T11:24:17;5.60;93.60
47336;DHT22;33068;51.990;5.926;2023-02-26T11:26:48;5.80;93.90
47336;DHT22;33068;51.990;5.926;2023-02-26T11:29:19;5.70;93.90
47336;DHT22;33068;51.990;5.926;2023-02-26T11:31:49;5.50;94.30
47336;DHT22;33068;51.990;5.926;2023-02-26T11:34:21;5.30;94.10
47336;DHT22;33068;51.990;5.926;2023-02-26T11:36:50;5.60;94.50
47336;DHT22;33068;51.990;5.926;2023-02-26T11:39:22;5.40;94.00
47336;DHT22;33068;51.990;5.926;2023-02-26T11:41:52;5.50;94.30
47336;DHT22;33068;51.990;5.926;2023-02-26T11:44:23;5.90;94.40
47336;DHT22;33068;51.990;5.926;2023-02-26T11:46:55;6.00;93.80
47336;DHT22;33068;51.990;5.926;2023-02-26T11:49:24;6.10;93.60
47336;DHT22;33068;51.990;5.926;2023-02-26T11:52:04;6.10;93.60
47336;DHT22;33068;51.990;5.926;2023-02-26T11:54:34;6.40;93.30
47336;DHT22;33068;51.990;5.926;2023-02-26T11:57:06;6.80;92.60
47336;DHT22;33068;51.990;5.926;2023-02-26T11:59:34;7.00;93.30
47336;DHT22;33068;51.990;5.926;2023-02-26T12:02:11;6.80;92.20
47336;DHT22;33068;51.990;5.926;2023-02-26T12:04:41;6.80;91.60
47336;DHT22;33068;51.990;5.926;2023-02-26T12:07:13;6.40;92.50
47336;DHT22;33068;51.990;5.926;2023-02-26T12:09:40;6.70;92.70
47336;DHT22;33068;51.990;5.926;2023-02-26T12:12:21;7.00;92.20
47336;DHT22;33068;51.990;5.926;2023-02-26T12:15:13;7.10;91.90
47336;DHT22;33068;51.990;5.926;2023-02-26T12:17:57;6.80;92.10
47336;DHT22;33068;51.990;5.926;2023-02-26T12:20:34;6.80;92.00
47336;DHT22;33068;51.990;5.926;2023-02-26T12:23:30;7.00;92.40
47336;DHT22;33068;51.990;5.926;2023-02-26T12:26:12;7.20;91.30
47336;DHT22;33068;51.990;5.926;2023-02-26T12:35:09;6.60;90.80
47336;DHT22;33068;51.990;5.926;2023-02-26T12:37:51;6.70;91.30
47336;DHT22;33068;51.990;5.926;2023-02-26T12:40:40;6.90;91.20
47336;DHT22;33068;51.990;5.926;2023-02-26T12:43:10;7.10;91.20
47336;DHT22;33068;51.990;5.926;2023-02-26T12:45:46;7.30;90.50
47336;DHT22;33068;51.990;5.926;2023-02-26T12:48:43;7.40;90.50
47336;DHT22;33068;51.990;5.926;2023-02-26T12:51:22;7.50;91.30
47336;DHT22;33068;51.990;5.926;2023-02-26T12:54:08;7.70;90.10
47336;DHT22;33068;51.990;5.926;2023-02-26T12:56:50;7.80;90.20
47336;DHT22;33068;51.990;5.926;2023-02-26T12:59:42;7.50;90.90
47336;DHT22;33068;51.990;5.926;2023-02-26T13:02:42;7.60;90.30
47336;DHT22;33068;51.990;5.926;2023-02-26T13:05:23;7.70;89.20
47336;DHT22;33068;51.990;5.926;2023-02-26T13:08:03;8.00;88.80
47336;DHT22;33068;51.990;5.926;2023-02-26T13:10:43;7.80;89.00
47336;DHT22;33068;51.990;5.926;2023-02-26T13:13:33;7.60;89.90
47336;DHT22;33068;51.990;5.926;2023-02-26T13:16:13;7.50;90.00
47336;DHT22;33068;51.990;5.926;2023-02-26T13:18:48;7.30;90.40
47336;DHT22;33068;51.990;5.926;2023-02-26T13:21:19;7.40;90.20
47336;DHT22;33068;51.990;5.926;2023-02-26T13:23:51;7.60;91.10
47336;DHT22;33068;51.990;5.926;2023-02-26T13:26:20;7.70;90.60
47336;DHT22;33068;51.990;5.926;2023-02-26T13:28:52;8.00;90.10
47336;DHT22;33068;51.990;5.926;2023-02-26T13:31:24;8.10;90.10
47336;DHT22;33068;51.990;5.926;2023-02-26T13:33:54;8.00;89.50
47336;DHT22;33068;51.990;5.926;2023-02-26T13:36:24;8.20;89.30
47336;DHT22;33068;51.990;5.926;2023-02-26T13:39:07;8.20;89.60
47336;DHT22;33068;51.990;5.926;2023-02-26T13:41:42;8.30;89.50
47336;DHT22;33068;51.990;5.926;2023-02-26T13:44:17;8.50;88.30
47336;DHT22;33068;51.990;5.926;2023-02-26T13:46:55;8.20;88.70
47336;DHT22;33068;51.990;5.926;2023-02-26T13:49:33;8.10;88.70
47336;DHT22;33068;51.990;5.926;2023-02-26T13:52:04;8.30;87.50
47336;DHT22;33068;51.990;5.926;2023-02-26T13:54:42;8.20;87.20
47336;DHT22;33068;51.990;5.926;2023-02-26T13:57:23;8.30;87.10
47336;DHT22;33068;51.990;5.926;2023-02-26T13:59:54;8.30;86.70
47336;DHT22;33068;51.990;5.926;2023-02-26T14:02:50;8.20;86.90
47336;DHT22;33068;51.990;5.926;2023-02-26T14:08:43;7.60;89.00
47336;DHT22;33068;51.990;5.926;2023-02-26T14:14:26;7.80;87.90
47336;DHT22;33068;51.990;5.926;2023-02-26T14:17:27;7.60;87.50
47336;DHT22;33068;51.990;5.926;2023-02-26T14:20:17;7.60;88.40
47336;DHT22;33068;51.990;5.926;2023-02-26T14:22:48;7.60;88.70
47336;DHT22;33068;51.990;5.926;2023-02-26T14:25:19;7.30;88.60
47336;DHT22;33068;51.990;5.926;2023-02-26T14:27:49;7.20;90.00
47336;DHT22;33068;51.990;5.926;2023-02-26T14:30:27;7.40;90.10
47336;DHT22;33068;51.990;5.926;2023-02-26T14:33:06;7.50;89.40
47336;DHT22;33068;51.990;5.926;2023-02-26T14:35:39;7.50;90.00
47336;DHT22;33068;51.990;5.926;2023-02-26T14:38:12;7.50;90.00
47336;DHT22;33068;51.990;5.926;2023-02-26T14:40:46;7.50;90.40
47336;DHT22;33068;51.990;5.926;2023-02-26T14:43:17;7.50;90.40
47336;DHT22;33068;51.990;5.926;2023-02-26T14:45:47;7.40;90.20
47336;DHT22;33068;51.990;5.926;2023-02-26T14:48:17;7.40;90.40
47336;DHT22;33068;51.990;5.926;2023-02-26T14:51:03;7.30;90.50
47336;DHT22;33068;51.990;5.926;2023-02-26T14:56:53;7.20;90.40
47336;DHT22;33068;51.990;5.926;2023-02-26T14:59:36;7.00;91.10
47336;DHT22;33068;51.990;5.926;2023-02-26T15:02:20;7.10;91.00
47336;DHT22;33068;51.990;5.926;2023-02-26T15:05:19;6.90;91.80
47336;DHT22;33068;51.990;5.926;2023-02-26T15:08:04;7.00;91.50
47336;DHT22;33068;51.990;5.926;2023-02-26T15:10:46;7.10;91.30
47336;DHT22;33068;51.990;5.926;2023-02-26T15:13:38;7.10;90.90
47336;DHT22;33068;51.990;5.926;2023-02-26T15:16:17;7.00;90.50
47336;DHT22;33068;51.990;5.926;2023-02-26T15:19:03;7.00;90.20
47336;DHT22;33068;51.990;5.926;2023-02-26T15:21:41;7.00;90.50
47336;DHT22;33068;51.990;5.926;2023-02-26T15:24:11;7.10;90.50
47336;DHT22;33068;51.990;5.926;2023-02-26T15:26:45;7.30;90.70
47336;DHT22;33068;51.990;5.926;2023-02-26T15:29:13;7.20;90.80
47336;DHT22;33068;51.990;5.926;2023-02-26T15:31:43;7.30;91.00
47336;DHT22;33068;51.990;5.926;2023-02-26T15:34:12;7.40;90.00
47336;DHT22;33068;51.990;5.926;2023-02-26T15:36:43;7.40;89.60
47336;DHT22;33068;51.990;5.926;2023-02-26T15:39:13;7.50;88.90
47336;DHT22;33068;51.990;5.926;2023-02-26T15:41:43;7.40;89.70
47336;DHT22;33068;51.990;5.926;2023-02-26T15:44:14;7.50;90.10
47336;DHT22;33068;51.990;5.926;2023-02-26T15:46:44;7.40;90.00
47336;DHT22;33068;51.990;5.926;2023-02-26T15:49:17;7.30;90.40
47336;DHT22;33068;51.990;5.926;2023-02-26T15:51:47;7.50;90.10
47336;DHT22;33068;51.990;5.926;2023-02-26T15:54:16;7.70;90.10
47336;DHT22;33068;51.990;5.926;2023-02-26T15:56:45;7.70;89.20
47336;DHT22;33068;51.990;5.926;2023-02-26T15:59:16;7.70;90.00
47336;DHT22;33068;51.990;5.926;2023-02-26T16:01:44;7.80;88.90
47336;DHT22;33068;51.990;5.926;2023-02-26T16:04:15;7.80;88.60
47336;DHT22;33068;51.990;5.926;2023-02-26T16:06:45;7.30;90.70
47336;DHT22;33068;51.990;5.926;2023-02-26T16:09:18;6.80;91.50
47336;DHT22;33068;51.990;5.926;2023-02-26T16:11:46;6.60;91.60
47336;DHT22;33068;51.990;5.926;2023-02-26T16:14:18;6.50;91.50
47336;DHT22;33068;51.990;5.926;2023-02-26T16:16:48;6.20;92.70
47336;DHT22;33068;51.990;5.926;2023-02-26T16:19:20;6.10;92.40
47336;DHT22;33068;51.990;5.926;2023-02-26T16:21:50;6.10;92.10
47336;DHT22;33068;51.990;5.926;2023-02-26T16:24:20;6.00;92.00
47336;DHT22;33068;51.990;5.926;2023-02-26T16:26:52;5.90;92.20